WetterOnline ( https://www.wetteronline.de )

Wetter aktuell Aßlar

Aktuelles Wetter: Gießen (195m)

6-stündlich | Neueste Meldungen
Ortszeit Temperatur Wetter
Mi, 28.10. 7:00 9.6° C bedeckt
Mi, 28.10. 1:00 9.4° C bedeckt
Di, 27.10. 19:00 9.4° C wolkig
Di, 27.10. 13:00 11.2° C bedeckt
Di, 27.10. 7:00 6.5° C bewölkt
Di, 27.10. 1:00 6.5° C bewölkt
Mo, 26.10. 19:00 8.1° C bedeckt
Mo, 26.10. 13:00 10.6° C -
Ortszeit Temperatur Wetter
Mi, 28.10. 7:00 9.6° C bedeckt
Mi, 28.10. 6:50 9.6° C bedeckt
Mi, 28.10. 6:40 9.5° C bewölkt
Mi, 28.10. 6:30 9.4° C bewölkt
Mi, 28.10. 6:20 9.4° C bewölkt
Mi, 28.10. 6:10 9.4° C Sprühregen
Mi, 28.10. 6:00 9.4° C bedeckt
Mi, 28.10. 5:30 9.3° C bedeckt
Mi, 28.10. 5:00 9.1° C bedeckt
Mi, 28.10. 4:30 9.0° C bedeckt
Mi, 28.10. 4:00 8.9° C bedeckt
Ortszeit Relative Feuchte Sichtweite
Mi, 28.10. 7:00 87% 60 km
Mi, 28.10. 1:00 75% 30 km
Di, 27.10. 19:00 77% 50 km
Di, 27.10. 13:00 72% 45 km
Di, 27.10. 7:00 93% 11 km
Di, 27.10. 1:00 93% 15 km
Mo, 26.10. 19:00 79% 45 km
Mo, 26.10. 13:00 77% 55 km
Ortszeit Relative Feuchte Sichtweite
Mi, 28.10. 7:00 87% 60 km
Mi, 28.10. 6:50 87% -
Mi, 28.10. 6:40 87% -
Mi, 28.10. 6:30 87% 50 km
Mi, 28.10. 6:20 87% -
Mi, 28.10. 6:10 87% -
Mi, 28.10. 6:00 86% 50 km
Mi, 28.10. 5:30 83% 50 km
Mi, 28.10. 5:00 84% 40 km
Mi, 28.10. 4:30 83% 50 km
Mi, 28.10. 4:00 84% 45 km
Ortszeit Niederschlagsmenge Niederschlagsart
Mi, 28.10. 7:00 0.1 l/m2 in 12 Std. Regen
Mi, 28.10. 1:00 0.1 l/m2 in 6 Std. Sprühregen
Di, 27.10. 19:00 0.1 l/m2 in 12 Std. -
Di, 27.10. 13:00 0.1 l/m2 in 6 Std. Regen
Di, 27.10. 7:00 0.0 l/m2 in 12 Std. -
Di, 27.10. 1:00 0.0 l/m2 in 6 Std. -
Mo, 26.10. 19:00 0.7 l/m2 in 12 Std. -
Mo, 26.10. 13:00 0.7 l/m2 in 6 Std. Regen
Ortszeit Niederschlagsmenge Niederschlagsart
Mi, 28.10. 7:00 0.1 l/m2 in 1 Std. Regen
Mi, 28.10. 6:50 keine Meldung -
Mi, 28.10. 6:40 keine Meldung -
Mi, 28.10. 6:30 0.1 l/m2 in 1 Std. Schneeregen
Mi, 28.10. 6:20 keine Meldung -
Mi, 28.10. 6:10 keine Meldung -
Mi, 28.10. 6:00 0.1 l/m2 in 1 Std. Regen
Mi, 28.10. 5:30 0.0 l/m2 in 1 Std. -
Mi, 28.10. 5:00 0.0 l/m2 in 1 Std. -
Mi, 28.10. 4:30 0.0 l/m2 in 1 Std. -
Mi, 28.10. 4:00 0.1 l/m2 in 1 Std. Regen
Ortszeit Stärke Spitze Richtung
km/h Bft. km/h Grad Sektor
Mi, 28.10. 7:00 14 3 32 170° S
Mi, 28.10. 1:00 24 4 39 160° S
Di, 27.10. 19:00 20 4 41 160° S
Di, 27.10. 13:00 28 4 39 200° S
Di, 27.10. 7:00 9 2 22 180° S
Di, 27.10. 1:00 7 2 13 130° SO
Mo, 26.10. 19:00 7 2 40 120° SO
Mo, 26.10. 13:00 18 3 29 210° SW
Ortszeit Stärke Spitze Richtung
km/h Bft. km/h Grad Sektor
Mi, 28.10. 7:00 14 3 22 170° S
Mi, 28.10. 6:50 14 3 - 170° S
Mi, 28.10. 6:40 14 3 - 180° S
Mi, 28.10. 6:30 14 3 22 180° S
Mi, 28.10. 6:20 14 3 - 180° S
Mi, 28.10. 6:10 15 3 - 170° S
Mi, 28.10. 6:00 11 2 25 170° S
Mi, 28.10. 5:30 14 3 25 160° S
Mi, 28.10. 5:00 14 3 25 160° S
Mi, 28.10. 4:30 14 3 22 150° SO
Mi, 28.10. 4:00 14 3 25 150° SO
Ortszeit Untergrenze Bedeckung Gattung
total tief tief mittel hoch
Mi, 28.10. 7:00 480 m 8/8 8/8 - - -
Mi, 28.10. 1:00 630 m 8/8 8/8 - - -
Di, 27.10. 19:00 1500 m 7/8 1/8 - - -
Di, 27.10. 13:00 780 m 8/8 8/8 - - -
Di, 27.10. 7:00 540 m 7/8 7/8 - - -
Di, 27.10. 1:00 1500 m 7/8 7/8 - - -
Mo, 26.10. 19:00 5700 m 8/8 8/8 - - -
Mo, 26.10. 13:00 - - - - - -
Ortszeit Bedeckungsgrad in Achtel und Wolkenuntergrenze
Mi, 28.10. 7:00 7(480m) 8(630m)
Mi, 28.10. 6:50 7(480m) 8(630m)
Mi, 28.10. 6:40 7(450m)
Mi, 28.10. 6:30 7(420m)
Mi, 28.10. 6:20 7(420m)
Mi, 28.10. 6:10 7(420m)
Mi, 28.10. 6:00 1(270m) 8(450m)
Mi, 28.10. 5:30 8(480m) 8(450m)
Mi, 28.10. 5:00 8(480m)
Mi, 28.10. 4:30 8(450m)
Mi, 28.10. 4:00 8(450m)
Ortszeit Luftdruck NN (hPa) Tendenz (hPa in 3 Std.)
Mi, 28.10. 7:00 1009 + 0,8
Mi, 28.10. 1:00 1008 - 0,4
Di, 27.10. 19:00 1009 + 0,2
Di, 27.10. 13:00 1009 + 0,2
Di, 27.10. 7:00 1008 + 0,9
Di, 27.10. 1:00 1007 + 0,2
Mo, 26.10. 19:00 1006 + 0,9
Mo, 26.10. 13:00 1004 + 0,2
Ortszeit Luftdruck NN (hPa) Tendenz (hPa in 3 Std.)
Mi, 28.10. 7:00 1009 + 0,8
Mi, 28.10. 6:50 1009 keine Meldung
Mi, 28.10. 6:40 1008 keine Meldung
Mi, 28.10. 6:30 1008 + 0,5
Mi, 28.10. 6:20 1008 keine Meldung
Mi, 28.10. 6:10 1008 keine Meldung
Mi, 28.10. 6:00 1008 + 0,5
Mi, 28.10. 5:30 1008 + 0,2
Mi, 28.10. 5:00 1008 0,0
Mi, 28.10. 4:30 1008 - 0,2
Mi, 28.10. 4:00 1008 - 0,3
Ortszeit Schneehöhe (cm)
Mi, 28.10. 7:00 0
Mi, 28.10. 1:00 0
Di, 27.10. 19:00 0
Di, 27.10. 13:00 0
Di, 27.10. 7:00 0
Di, 27.10. 1:00 0
Mo, 26.10. 19:00 0
Mo, 26.10. 13:00 0
Ortszeit Schneehöhe (cm)
Mi, 28.10. 7:00 0
Mi, 28.10. 6:50 0
Mi, 28.10. 6:40 0
Mi, 28.10. 6:30 0
Mi, 28.10. 6:20 0
Mi, 28.10. 6:10 0
Mi, 28.10. 6:00 0
Mi, 28.10. 5:30 0
Mi, 28.10. 5:00 0
Mi, 28.10. 4:30 0
Mi, 28.10. 4:00 0
Link zu dieser Seite / Seite empfehlen

Das Wetter in ...